sensor_id;sensor_type;location;lat;lon;timestamp;P1;P2;P0
32503;PMS5003;18953;45.930;13.640;2023-03-14T00:05:00;42;35;
32503;PMS5003;18953;45.930;13.640;2023-03-14T00:10:17;31;27;
32503;PMS5003;18953;45.930;13.640;2023-03-14T00:15:33;34;31;
32503;PMS5003;18953;45.930;13.640;2023-03-14T00:20:49;33;30;
32503;PMS5003;18953;45.930;13.640;2023-03-14T00:26:06;30;28;
32503;PMS5003;18953;45.930;13.640;2023-03-14T00:31:22;24;22;
32503;PMS5003;18953;45.930;13.640;2023-03-14T00:36:39;21;20;
32503;PMS5003;18953;45.930;13.640;2023-03-14T00:41:55;31;28;
32503;PMS5003;18953;45.930;13.640;2023-03-14T00:47:11;30;25;
32503;PMS5003;18953;45.930;13.640;2023-03-14T00:52:28;14;13;
32503;PMS5003;18953;45.930;13.640;2023-03-14T00:57:44;14;14;
32503;PMS5003;18953;45.930;13.640;2023-03-14T01:03:01;17;15;
32503;PMS5003;18953;45.930;13.640;2023-03-14T01:08:17;15;14;
32503;PMS5003;18953;45.930;13.640;2023-03-14T01:13:33;23;23;
32503;PMS5003;18953;45.930;13.640;2023-03-14T01:18:50;17;16;
32503;PMS5003;18953;45.930;13.640;2023-03-14T01:24:06;18;15;
32503;PMS5003;18953;45.930;13.640;2023-03-14T01:29:22;12;12;
32503;PMS5003;18953;45.930;13.640;2023-03-14T01:34:39;10;10;
32503;PMS5003;18953;45.930;13.640;2023-03-14T01:39:55;8;8;
32503;PMS5003;18953;45.930;13.640;2023-03-14T01:45:53;10;9;
32503;PMS5003;18953;45.930;13.640;2023-03-14T01:50:28;16;16;
32503;PMS5003;18953;45.930;13.640;2023-03-14T01:55:44;16;15;
32503;PMS5003;18953;45.930;13.640;2023-03-14T02:01:01;18;18;
32503;PMS5003;18953;45.930;13.640;2023-03-14T02:06:17;17;16;
32503;PMS5003;18953;45.930;13.640;2023-03-14T02:11:33;18;18;
32503;PMS5003;18953;45.930;13.640;2023-03-14T02:16:50;20;18;
32503;PMS5003;18953;45.930;13.640;2023-03-14T02:22:08;19;17;
32503;PMS5003;18953;45.930;13.640;2023-03-14T02:27:23;19;15;
32503;PMS5003;18953;45.930;13.640;2023-03-14T02:32:40;16;15;
32503;PMS5003;18953;45.930;13.640;2023-03-14T02:37:57;18;17;
32503;PMS5003;18953;45.930;13.640;2023-03-14T02:43:12;16;15;
32503;PMS5003;18953;45.930;13.640;2023-03-14T02:48:30;18;14;
32503;PMS5003;18953;45.930;13.640;2023-03-14T02:53:45;17;17;
32503;PMS5003;18953;45.930;13.640;2023-03-14T02:59:02;17;16;
32503;PMS5003;18953;45.930;13.640;2023-03-14T03:04:18;23;20;
32503;PMS5003;18953;45.930;13.640;2023-03-14T03:09:34;20;19;
32503;PMS5003;18953;45.930;13.640;2023-03-14T03:14:51;21;19;
32503;PMS5003;18953;45.930;13.640;2023-03-14T03:20:07;23;19;
32503;PMS5003;18953;45.930;13.640;2023-03-14T03:25:23;20;18;
32503;PMS5003;18953;45.930;13.640;2023-03-14T03:30:40;20;19;
32503;PMS5003;18953;45.930;13.640;2023-03-14T03:35:56;23;19;
32503;PMS5003;18953;45.930;13.640;2023-03-14T03:41:13;24;20;
32503;PMS5003;18953;45.930;13.640;2023-03-14T03:46:29;20;19;
32503;PMS5003;18953;45.930;13.640;2023-03-14T03:51:45;20;17;
32503;PMS5003;18953;45.930;13.640;2023-03-14T03:57:02;20;19;
32503;PMS5003;18953;45.930;13.640;2023-03-14T04:02:18;15;12;
32503;PMS5003;18953;45.930;13.640;2023-03-14T04:07:34;10;9;
32503;PMS5003;18953;45.930;13.640;2023-03-14T04:12:51;8;8;
32503;PMS5003;18953;45.930;13.640;2023-03-14T04:18:07;6;5;
32503;PMS5003;18953;45.930;13.640;2023-03-14T04:23:37;8;8;
32503;PMS5003;18953;45.930;13.640;2023-03-14T04:28:53;8;6;
32503;PMS5003;18953;45.930;13.640;2023-03-14T04:34:09;8;8;
32503;PMS5003;18953;45.930;13.640;2023-03-14T04:39:26;7;6;
32503;PMS5003;18953;45.930;13.640;2023-03-14T04:44:42;6;4;
32503;PMS5003;18953;45.930;13.640;2023-03-14T04:49:59;5;5;
32503;PMS5003;18953;45.930;13.640;2023-03-14T04:55:15;6;6;
32503;PMS5003;18953;45.930;13.640;2023-03-14T05:00:31;5;5;
32503;PMS5003;18953;45.930;13.640;2023-03-14T05:05:48;3;3;
32503;PMS5003;18953;45.930;13.640;2023-03-14T05:11:04;5;5;
32503;PMS5003;18953;45.930;13.640;2023-03-14T05:16:20;4;4;
32503;PMS5003;18953;45.930;13.640;2023-03-14T05:21:37;11;9;
32503;PMS5003;18953;45.930;13.640;2023-03-14T05:26:53;4;4;
32503;PMS5003;18953;45.930;13.640;2023-03-14T05:32:09;9;8;
32503;PMS5003;18953;45.930;13.640;2023-03-14T05:37:26;8;7;
32503;PMS5003;18953;45.930;13.640;2023-03-14T05:42:42;4;4;
32503;PMS5003;18953;45.930;13.640;2023-03-14T05:47:59;5;4;
32503;PMS5003;18953;45.930;13.640;2023-03-14T05:53:15;9;9;
32503;PMS5003;18953;45.930;13.640;2023-03-14T05:58:31;6;5;
32503;PMS5003;18953;45.930;13.640;2023-03-14T06:03:48;3;3;
32503;PMS5003;18953;45.930;13.640;2023-03-14T06:09:04;7;6;
32503;PMS5003;18953;45.930;13.640;2023-03-14T06:14:20;9;7;
32503;PMS5003;18953;45.930;13.640;2023-03-14T06:19:37;5;5;
32503;PMS5003;18953;45.930;13.640;2023-03-14T06:24:53;8;7;
32503;PMS5003;18953;45.930;13.640;2023-03-14T06:30:10;5;5;
32503;PMS5003;18953;45.930;13.640;2023-03-14T06:35:26;7;6;
32503;PMS5003;18953;45.930;13.640;2023-03-14T06:40:42;5;4;
32503;PMS5003;18953;45.930;13.640;2023-03-14T06:45:59;4;4;
32503;PMS5003;18953;45.930;13.640;2023-03-14T06:51:15;3;3;
32503;PMS5003;18953;45.930;13.640;2023-03-14T06:56:31;7;6;
32503;PMS5003;18953;45.930;13.640;2023-03-14T07:01:48;4;4;
32503;PMS5003;18953;45.930;13.640;2023-03-14T07:07:04;4;4;
32503;PMS5003;18953;45.930;13.640;2023-03-14T07:12:21;3;3;
32503;PMS5003;18953;45.930;13.640;2023-03-14T07:17:37;3;3;
32503;PMS5003;18953;45.930;13.640;2023-03-14T07:22:53;7;7;
32503;PMS5003;18953;45.930;13.640;2023-03-14T07:28:10;7;6;
32503;PMS5003;18953;45.930;13.640;2023-03-14T07:33:26;16;14;
32503;PMS5003;18953;45.930;13.640;2023-03-14T07:38:42;8;8;
32503;PMS5003;18953;45.930;13.640;2023-03-14T07:43:59;3;3;
32503;PMS5003;18953;45.930;13.640;2023-03-14T07:49:15;8;8;
32503;PMS5003;18953;45.930;13.640;2023-03-14T07:54:31;7;7;
32503;PMS5003;18953;45.930;13.640;2023-03-14T07:59:48;6;6;
32503;PMS5003;18953;45.930;13.640;2023-03-14T08:05:04;10;8;
32503;PMS5003;18953;45.930;13.640;2023-03-14T08:10:21;6;4;
32503;PMS5003;18953;45.930;13.640;2023-03-14T08:15:37;7;7;
32503;PMS5003;18953;45.930;13.640;2023-03-14T08:20:53;8;8;
32503;PMS5003;18953;45.930;13.640;2023-03-14T08:26:10;5;5;
32503;PMS5003;18953;45.930;13.640;2023-03-14T08:31:27;72;52;
32503;PMS5003;18953;45.930;13.640;2023-03-14T08:36:43;24;21;
32503;PMS5003;18953;45.930;13.640;2023-03-14T08:41:59;8;8;
32503;PMS5003;18953;45.930;13.640;2023-03-14T08:47:16;8;8;
32503;PMS5003;18953;45.930;13.640;2023-03-14T08:52:32;7;7;
32503;PMS5003;18953;45.930;13.640;2023-03-14T08:57:49;14;13;
32503;PMS5003;18953;45.930;13.640;2023-03-14T09:03:05;15;14;
32503;PMS5003;18953;45.930;13.640;2023-03-14T09:08:21;15;14;
32503;PMS5003;18953;45.930;13.640;2023-03-14T09:13:38;10;10;
32503;PMS5003;18953;45.930;13.640;2023-03-14T09:18:54;12;11;
32503;PMS5003;18953;45.930;13.640;2023-03-14T09:24:11;10;10;
32503;PMS5003;18953;45.930;13.640;2023-03-14T09:29:27;27;25;
32503;PMS5003;18953;45.930;13.640;2023-03-14T09:34:43;16;13;
32503;PMS5003;18953;45.930;13.640;2023-03-14T09:40:00;18;17;
32503;PMS5003;18953;45.930;13.640;2023-03-14T09:45:17;17;16;
32503;PMS5003;18953;45.930;13.640;2023-03-14T09:50:36;24;20;
32503;PMS5003;18953;45.930;13.640;2023-03-14T09:55:50;11;10;
32503;PMS5003;18953;45.930;13.640;2023-03-14T10:01:07;17;15;
32503;PMS5003;18953;45.930;13.640;2023-03-14T10:06:22;9;9;
32503;PMS5003;18953;45.930;13.640;2023-03-14T10:11:39;15;14;
32503;PMS5003;18953;45.930;13.640;2023-03-14T10:16:55;10;9;
32503;PMS5003;18953;45.930;13.640;2023-03-14T10:22:12;6;6;
32503;PMS5003;18953;45.930;13.640;2023-03-14T10:27:28;9;8;
32503;PMS5003;18953;45.930;13.640;2023-03-14T10:32:44;7;6;
32503;PMS5003;18953;45.930;13.640;2023-03-14T10:38:00;9;7;
32503;PMS5003;18953;45.930;13.640;2023-03-14T10:43:17;15;12;
32503;PMS5003;18953;45.930;13.640;2023-03-14T10:48:33;12;11;
32503;PMS5003;18953;45.930;13.640;2023-03-14T10:53:50;10;9;
32503;PMS5003;18953;45.930;13.640;2023-03-14T10:59:06;7;6;
32503;PMS5003;18953;45.930;13.640;2023-03-14T11:04:26;10;10;
32503;PMS5003;18953;45.930;13.640;2023-03-14T11:09:39;9;8;
32503;PMS5003;18953;45.930;13.640;2023-03-14T11:14:55;11;10;
32503;PMS5003;18953;45.930;13.640;2023-03-14T11:20:17;11;10;
32503;PMS5003;18953;45.930;13.640;2023-03-14T11:25:29;14;12;
32503;PMS5003;18953;45.930;13.640;2023-03-14T11:30:46;5;5;
32503;PMS5003;18953;45.930;13.640;2023-03-14T11:36:02;13;12;
32503;PMS5003;18953;45.930;13.640;2023-03-14T11:41:18;4;4;
32503;PMS5003;18953;45.930;13.640;2023-03-14T11:46:34;6;5;
32503;PMS5003;18953;45.930;13.640;2023-03-14T11:51:50;3;3;
32503;PMS5003;18953;45.930;13.640;2023-03-14T11:57:10;20;19;
32503;PMS5003;18953;45.930;13.640;2023-03-14T12:02:24;7;6;
32503;PMS5003;18953;45.930;13.640;2023-03-14T12:07:39;8;6;
32503;PMS5003;18953;45.930;13.640;2023-03-14T12:12:55;8;7;
32503;PMS5003;18953;45.930;13.640;2023-03-14T12:18:16;10;10;
32503;PMS5003;18953;45.930;13.640;2023-03-14T12:23:33;9;8;
32503;PMS5003;18953;45.930;13.640;2023-03-14T12:28:48;4;4;
32503;PMS5003;18953;45.930;13.640;2023-03-14T12:34:01;6;6;
32503;PMS5003;18953;45.930;13.640;2023-03-14T12:39:19;5;5;
32503;PMS5003;18953;45.930;13.640;2023-03-14T12:44:41;8;7;
32503;PMS5003;18953;45.930;13.640;2023-03-14T12:49:50;10;8;
32503;PMS5003;18953;45.930;13.640;2023-03-14T12:55:06;13;11;
32503;PMS5003;18953;45.930;13.640;2023-03-14T13:00:23;11;8;
32503;PMS5003;18953;45.930;13.640;2023-03-14T13:05:50;10;8;
32503;PMS5003;18953;45.930;13.640;2023-03-14T13:10:55;13;12;
32503;PMS5003;18953;45.930;13.640;2023-03-14T13:16:14;11;10;
32503;PMS5003;18953;45.930;13.640;2023-03-14T13:21:28;13;12;
32503;PMS5003;18953;45.930;13.640;2023-03-14T13:26:44;8;7;
32503;PMS5003;18953;45.930;13.640;2023-03-14T13:32:10;10;8;
32503;PMS5003;18953;45.930;13.640;2023-03-14T13:37:19;10;8;
32503;PMS5003;18953;45.930;13.640;2023-03-14T13:42:34;16;14;
32503;PMS5003;18953;45.930;13.640;2023-03-14T13:47:51;10;10;
32503;PMS5003;18953;45.930;13.640;2023-03-14T13:53:09;9;8;
32503;PMS5003;18953;45.930;13.640;2023-03-14T13:58:26;11;11;
32503;PMS5003;18953;45.930;13.640;2023-03-14T14:03:40;10;9;
32503;PMS5003;18953;45.930;13.640;2023-03-14T14:08:56;12;11;
32503;PMS5003;18953;45.930;13.640;2023-03-14T14:14:13;15;13;
32503;PMS5003;18953;45.930;13.640;2023-03-14T14:19:29;8;8;
32503;PMS5003;18953;45.930;13.640;2023-03-14T14:24:45;19;16;
32503;PMS5003;18953;45.930;13.640;2023-03-14T14:30:03;14;13;
32503;PMS5003;18953;45.930;13.640;2023-03-14T14:35:22;16;14;
32503;PMS5003;18953;45.930;13.640;2023-03-14T14:40:34;19;17;
32503;PMS5003;18953;45.930;13.640;2023-03-14T14:45:51;15;14;
32503;PMS5003;18953;45.930;13.640;2023-03-14T14:51:07;16;13;
32503;PMS5003;18953;45.930;13.640;2023-03-14T14:56:24;26;25;
32503;PMS5003;18953;45.930;13.640;2023-03-14T15:01:40;26;23;
32503;PMS5003;18953;45.930;13.640;2023-03-14T15:06:56;15;14;
32503;PMS5003;18953;45.930;13.640;2023-03-14T15:12:13;16;15;
32503;PMS5003;18953;45.930;13.640;2023-03-14T15:17:29;13;11;
32503;PMS5003;18953;45.930;13.640;2023-03-14T15:22:45;28;25;
32503;PMS5003;18953;45.930;13.640;2023-03-14T15:28:02;18;18;
32503;PMS5003;18953;45.930;13.640;2023-03-14T15:33:18;13;12;
32503;PMS5003;18953;45.930;13.640;2023-03-14T15:38:34;12;11;
32503;PMS5003;18953;45.930;13.640;2023-03-14T15:43:51;13;13;
32503;PMS5003;18953;45.930;13.640;2023-03-14T15:49:07;21;19;
32503;PMS5003;18953;45.930;13.640;2023-03-14T15:54:24;17;15;
32503;PMS5003;18953;45.930;13.640;2023-03-14T15:59:40;21;18;
32503;PMS5003;18953;45.930;13.640;2023-03-14T16:04:57;22;22;
32503;PMS5003;18953;45.930;13.640;2023-03-14T16:10:14;15;14;
32503;PMS5003;18953;45.930;13.640;2023-03-14T16:15:29;18;17;
32503;PMS5003;18953;45.930;13.640;2023-03-14T16:20:50;22;20;
32503;PMS5003;18953;45.930;13.640;2023-03-14T16:26:03;18;16;
32503;PMS5003;18953;45.930;13.640;2023-03-14T16:31:19;25;23;
32503;PMS5003;18953;45.930;13.640;2023-03-14T16:36:35;21;20;
32503;PMS5003;18953;45.930;13.640;2023-03-14T16:41:51;25;24;
32503;PMS5003;18953;45.930;13.640;2023-03-14T16:47:08;26;23;
32503;PMS5003;18953;45.930;13.640;2023-03-14T16:52:24;39;34;
32503;PMS5003;18953;45.930;13.640;2023-03-14T16:57:40;19;18;
32503;PMS5003;18953;45.930;13.640;2023-03-14T17:02:57;26;22;
32503;PMS5003;18953;45.930;13.640;2023-03-14T17:08:13;17;16;
32503;PMS5003;18953;45.930;13.640;2023-03-14T17:13:29;19;17;
32503;PMS5003;18953;45.930;13.640;2023-03-14T17:18:46;21;19;
32503;PMS5003;18953;45.930;13.640;2023-03-14T17:24:02;16;15;
32503;PMS5003;18953;45.930;13.640;2023-03-14T17:29:19;11;10;
32503;PMS5003;18953;45.930;13.640;2023-03-14T17:34:35;12;11;
32503;PMS5003;18953;45.930;13.640;2023-03-14T17:39:51;8;7;
32503;PMS5003;18953;45.930;13.640;2023-03-14T17:45:08;10;10;
32503;PMS5003;18953;45.930;13.640;2023-03-14T17:50:24;15;14;
32503;PMS5003;18953;45.930;13.640;2023-03-14T17:55:41;21;20;
32503;PMS5003;18953;45.930;13.640;2023-03-14T18:00:57;35;33;
32503;PMS5003;18953;45.930;13.640;2023-03-14T18:06:14;37;33;
32503;PMS5003;18953;45.930;13.640;2023-03-14T18:11:30;30;29;
32503;PMS5003;18953;45.930;13.640;2023-03-14T18:16:46;27;24;
32503;PMS5003;18953;45.930;13.640;2023-03-14T18:22:03;26;25;
32503;PMS5003;18953;45.930;13.640;2023-03-14T18:27:19;30;24;
32503;PMS5003;18953;45.930;13.640;2023-03-14T18:32:35;28;24;
32503;PMS5003;18953;45.930;13.640;2023-03-14T18:37:51;26;24;
32503;PMS5003;18953;45.930;13.640;2023-03-14T18:43:08;15;14;
32503;PMS5003;18953;45.930;13.640;2023-03-14T18:48:24;11;10;
32503;PMS5003;18953;45.930;13.640;2023-03-14T18:53:41;13;10;
32503;PMS5003;18953;45.930;13.640;2023-03-14T18:58:57;12;12;
32503;PMS5003;18953;45.930;13.640;2023-03-14T19:04:13;23;21;
32503;PMS5003;18953;45.930;13.640;2023-03-14T19:09:30;25;22;
32503;PMS5003;18953;45.930;13.640;2023-03-14T19:14:46;46;41;
32503;PMS5003;18953;45.930;13.640;2023-03-14T19:20:03;45;40;
32503;PMS5003;18953;45.930;13.640;2023-03-14T19:25:19;35;33;
32503;PMS5003;18953;45.930;13.640;2023-03-14T19:30:36;38;34;
32503;PMS5003;18953;45.930;13.640;2023-03-14T19:35:52;38;31;
32503;PMS5003;18953;45.930;13.640;2023-03-14T19:41:08;23;22;
32503;PMS5003;18953;45.930;13.640;2023-03-14T19:46:25;52;43;
32503;PMS5003;18953;45.930;13.640;2023-03-14T19:51:41;35;32;
32503;PMS5003;18953;45.930;13.640;2023-03-14T19:56:58;31;27;
32503;PMS5003;18953;45.930;13.640;2023-03-14T20:02:14;43;36;
32503;PMS5003;18953;45.930;13.640;2023-03-14T20:07:32;85;67;
32503;PMS5003;18953;45.930;13.640;2023-03-14T20:12:49;62;49;
32503;PMS5003;18953;45.930;13.640;2023-03-14T20:18:05;56;43;
32503;PMS5003;18953;45.930;13.640;2023-03-14T20:23:21;48;42;
32503;PMS5003;18953;45.930;13.640;2023-03-14T20:28:37;34;31;
32503;PMS5003;18953;45.930;13.640;2023-03-14T20:33:54;39;36;
32503;PMS5003;18953;45.930;13.640;2023-03-14T20:39:10;37;34;
32503;PMS5003;18953;45.930;13.640;2023-03-14T20:44:26;31;29;
32503;PMS5003;18953;45.930;13.640;2023-03-14T20:49:43;25;22;
32503;PMS5003;18953;45.930;13.640;2023-03-14T20:54:59;19;16;
32503;PMS5003;18953;45.930;13.640;2023-03-14T21:00:16;16;13;
32503;PMS5003;18953;45.930;13.640;2023-03-14T21:05:32;13;12;
32503;PMS5003;18953;45.930;13.640;2023-03-14T21:10:49;8;8;
32503;PMS5003;18953;45.930;13.640;2023-03-14T21:16:05;8;7;
32503;PMS5003;18953;45.930;13.640;2023-03-14T21:21:21;33;30;
32503;PMS5003;18953;45.930;13.640;2023-03-14T21:26:37;8;8;
32503;PMS5003;18953;45.930;13.640;2023-03-14T21:31:54;11;8;
32503;PMS5003;18953;45.930;13.640;2023-03-14T21:37:10;11;10;
32503;PMS5003;18953;45.930;13.640;2023-03-14T21:42:26;12;12;
32503;PMS5003;18953;45.930;13.640;2023-03-14T21:47:43;18;16;
32503;PMS5003;18953;45.930;13.640;2023-03-14T21:53:00;15;15;
32503;PMS5003;18953;45.930;13.640;2023-03-14T21:58:16;15;13;
32503;PMS5003;18953;45.930;13.640;2023-03-14T22:03:32;12;12;
32503;PMS5003;18953;45.930;13.640;2023-03-14T22:08:48;9;8;
32503;PMS5003;18953;45.930;13.640;2023-03-14T22:14:05;7;7;
32503;PMS5003;18953;45.930;13.640;2023-03-14T22:19:21;11;11;
32503;PMS5003;18953;45.930;13.640;2023-03-14T22:24:37;14;13;
32503;PMS5003;18953;45.930;13.640;2023-03-14T22:29:54;12;11;
32503;PMS5003;18953;45.930;13.640;2023-03-14T22:35:10;20;19;
32503;PMS5003;18953;45.930;13.640;2023-03-14T22:40:27;16;14;
32503;PMS5003;18953;45.930;13.640;2023-03-14T22:45:43;13;11;
32503;PMS5003;18953;45.930;13.640;2023-03-14T22:51:04;12;11;
32503;PMS5003;18953;45.930;13.640;2023-03-14T22:56:16;10;10;
32503;PMS5003;18953;45.930;13.640;2023-03-14T23:01:33;14;14;
32503;PMS5003;18953;45.930;13.640;2023-03-14T23:06:49;8;8;
32503;PMS5003;18953;45.930;13.640;2023-03-14T23:12:05;10;9;
32503;PMS5003;18953;45.930;13.640;2023-03-14T23:17:22;6;4;
32503;PMS5003;18953;45.930;13.640;2023-03-14T23:22:38;6;6;
32503;PMS5003;18953;45.930;13.640;2023-03-14T23:27:54;7;7;
32503;PMS5003;18953;45.930;13.640;2023-03-14T23:33:11;9;8;
32503;PMS5003;18953;45.930;13.640;2023-03-14T23:38:27;17;17;
32503;PMS5003;18953;45.930;13.640;2023-03-14T23:43:44;22;22;
32503;PMS5003;18953;45.930;13.640;2023-03-14T23:49:00;21;19;
32503;PMS5003;18953;45.930;13.640;2023-03-14T23:54:16;16;16;
32503;PMS5003;18953;45.930;13.640;2023-03-14T23:59:33;17;16;
